Time;durP1;ratioP1;P1;durP2;ratioP2;P2;SDS_P1;SDS_P2;PMS_P1;PMS_P2;Temp;Humidity;BMP_temperature;BMP_pressure;BME280_temperature;BME280_humidity;BME280_pressure;Samples;Min_cycle;Max_cycle;Signal;HPM_P1;HPM_P2
2023/10/30 00:02:20;;;;;;;1.60;0.40;;;;;;;;;;4961067;28;20515;-75
2023/10/30 00:04:45;;;;;;;1.75;0.47;;;;;;;;;;4954587;28;20085;-74
2023/10/30 00:07:11;;;;;;;2.15;0.57;;;;;;;;;;4970572;28;20052;-75
2023/10/30 00:09:36;;;;;;;1.60;0.70;;;;;;;;;;4953903;28;20046;-74
2023/10/30 00:12:02;;;;;;;1.80;0.43;;;;;;;;;;4965817;28;20692;-73
2023/10/30 00:14:28;;;;;;;1.83;0.45;;;;;;;;;;4977562;28;20037;-75
2023/10/30 00:16:53;;;;;;;1.02;0.50;;;;;;;;;;4967654;28;20053;-75
2023/10/30 00:19:18;;;;;;;2.50;1.08;;;;;;;;;;4951314;28;20177;-74
2023/10/30 00:21:44;;;;;;;1.60;0.45;;;;;;;;;;4960835;28;20054;-75
2023/10/30 00:24:09;;;;;;;1.05;0.52;;;;;;;;;;4953554;28;20035;-78
2023/10/30 00:26:35;;;;;;;0.80;0.40;;;;;;;;;;4967993;28;20864;-75
2023/10/30 00:29:01;;;;;;;2.50;0.50;;;;;;;;;;4965155;28;20035;-78
2023/10/30 00:31:27;;;;;;;1.60;0.50;;;;;;;;;;4985339;28;20043;-75
2023/10/30 00:33:53;;;;;;;1.23;0.50;;;;;;;;;;4965353;28;20042;-76
2023/10/30 00:36:18;;;;;;;2.83;0.50;;;;;;;;;;4965232;28;20035;-74
2023/10/30 00:38:45;;;;;;;1.70;0.40;;;;;;;;;;4953428;28;20034;-74
2023/10/30 00:41:10;;;;;;;1.55;0.55;;;;;;;;;;4964107;28;20112;-75
2023/10/30 00:43:37;;;;;;;2.15;0.40;;;;;;;;;;4957142;28;20081;-74
2023/10/30 00:46:03;;;;;;;1.73;0.50;;;;;;;;;;4977970;28;20121;-74
2023/10/30 00:48:29;;;;;;;0.50;0.43;;;;;;;;;;4967160;28;20034;-75
2023/10/30 00:50:55;;;;;;;1.42;0.70;;;;;;;;;;4974557;28;20628;-76
2023/10/30 00:53:20;;;;;;;2.60;0.70;;;;;;;;;;4961261;28;20035;-76
2023/10/30 00:55:50;;;;;;;5.00;0.73;;;;;;;;;;4972343;28;20042;-74
2023/10/30 00:58:16;;;;;;;1.63;0.50;;;;;;;;;;4959850;28;20046;-74
2023/10/30 01:00:41;;;;;;;5.03;0.65;;;;;;;;;;4961346;28;20038;-75
2023/10/30 01:03:06;;;;;;;2.88;0.43;;;;;;;;;;4980296;28;20046;-74
2023/10/30 01:05:32;;;;;;;1.98;0.60;;;;;;;;;;4960264;28;20047;-74
2023/10/30 01:07:57;;;;;;;1.92;0.40;;;;;;;;;;4953293;28;20565;-75
2023/10/30 01:10:23;;;;;;;2.83;0.60;;;;;;;;;;4971625;28;20035;-77
2023/10/30 01:12:48;;;;;;;0.85;0.50;;;;;;;;;;4966141;28;20062;-74
2023/10/30 01:15:16;;;;;;;1.80;0.60;;;;;;;;;;4954999;28;20038;-74
2023/10/30 01:17:41;;;;;;;2.22;0.50;;;;;;;;;;4975062;28;20046;-73
2023/10/30 01:20:07;;;;;;;1.92;0.60;;;;;;;;;;4951992;28;20053;-75
2023/10/30 01:22:32;;;;;;;1.00;0.50;;;;;;;;;;4964521;28;20072;-74
2023/10/30 01:24:58;;;;;;;1.58;0.60;;;;;;;;;;4953217;28;20065;-74
2023/10/30 01:27:23;;;;;;;1.27;0.50;;;;;;;;;;4962336;28;20034;-74
2023/10/30 01:29:49;;;;;;;0.68;0.40;;;;;;;;;;4962336;28;20564;-74
2023/10/30 01:32:14;;;;;;;2.58;0.60;;;;;;;;;;4964677;28;20043;-77
2023/10/30 01:34:39;;;;;;;2.72;0.80;;;;;;;;;;4956539;28;20037;-77
2023/10/30 01:37:05;;;;;;;1.38;0.50;;;;;;;;;;4982910;28;20038;-76
2023/10/30 01:39:30;;;;;;;1.08;0.47;;;;;;;;;;4957508;28;20038;-74
2023/10/30 01:41:55;;;;;;;2.10;0.75;;;;;;;;;;4969200;28;20923;-74
2023/10/30 01:44:21;;;;;;;1.27;0.43;;;;;;;;;;4952542;28;20263;-74
2023/10/30 01:46:47;;;;;;;0.68;0.60;;;;;;;;;;4979868;28;20082;-75
2023/10/30 01:49:12;;;;;;;0.63;0.50;;;;;;;;;;4949813;28;20126;-74
2023/10/30 01:51:38;;;;;;;3.92;0.68;;;;;;;;;;4967799;28;20549;-74
2023/10/30 01:54:04;;;;;;;3.35;0.70;;;;;;;;;;4966534;28;20139;-75
2023/10/30 01:56:32;;;;;;;1.17;0.57;;;;;;;;;;4961178;28;20746;-75
2023/10/30 01:58:58;;;;;;;2.13;0.60;;;;;;;;;;4976650;28;20034;-77
2023/10/30 02:01:24;;;;;;;1.40;0.60;;;;;;;;;;4958465;28;20053;-77
2023/10/30 02:03:51;;;;;;;1.00;0.55;;;;;;;;;;4941797;28;20522;-76
2023/10/30 02:06:16;;;;;;;1.45;0.60;;;;;;;;;;4946585;28;20057;-77
2023/10/30 02:08:42;;;;;;;1.77;0.90;;;;;;;;;;4978178;28;20044;-74
2023/10/30 02:11:07;;;;;;;1.92;0.60;;;;;;;;;;4961621;28;20049;-74
2023/10/30 02:13:32;;;;;;;3.90;0.80;;;;;;;;;;4975533;28;20070;-74
2023/10/30 02:15:58;;;;;;;10.63;1.10;;;;;;;;;;4975730;28;20063;-74
2023/10/30 02:18:23;;;;;;;2.92;0.80;;;;;;;;;;4953739;28;20089;-74
2023/10/30 02:20:49;;;;;;;7.82;0.77;;;;;;;;;;4981724;28;20156;-73
2023/10/30 02:23:14;;;;;;;3.47;0.65;;;;;;;;;;4947882;28;20043;-74
2023/10/30 02:25:40;;;;;;;2.72;0.57;;;;;;;;;;4960236;28;20455;-74
2023/10/30 02:28:06;;;;;;;3.80;0.60;;;;;;;;;;4961581;28;20124;-74
2023/10/30 02:30:31;;;;;;;2.55;0.60;;;;;;;;;;4969660;28;20045;-74
2023/10/30 02:32:57;;;;;;;1.20;0.50;;;;;;;;;;4949740;28;20035;-76
2023/10/30 02:35:23;;;;;;;1.08;0.40;;;;;;;;;;4957432;28;20043;-76
2023/10/30 02:37:48;;;;;;;1.70;0.45;;;;;;;;;;4972455;28;20076;-76
2023/10/30 02:40:14;;;;;;;1.55;0.70;;;;;;;;;;4953752;28;20131;-76
2023/10/30 02:42:40;;;;;;;1.50;0.60;;;;;;;;;;4957547;28;20467;-76
2023/10/30 02:45:07;;;;;;;1.65;0.65;;;;;;;;;;4958285;28;20125;-78
2023/10/30 02:47:33;;;;;;;1.65;0.60;;;;;;;;;;4965654;28;20614;-76
2023/10/30 02:49:59;;;;;;;3.75;0.60;;;;;;;;;;4958118;28;20050;-77
2023/10/30 02:52:24;;;;;;;1.73;0.60;;;;;;;;;;4959177;28;20118;-77
2023/10/30 02:54:50;;;;;;;1.92;0.82;;;;;;;;;;4964953;28;20034;-75
2023/10/30 02:57:15;;;;;;;2.58;0.70;;;;;;;;;;4955041;28;20134;-75
2023/10/30 02:59:41;;;;;;;0.70;0.52;;;;;;;;;;4973200;28;20113;-77
2023/10/30 03:02:07;;;;;;;1.67;0.38;;;;;;;;;;4961377;28;20068;-78
2023/10/30 03:04:33;;;;;;;2.35;0.55;;;;;;;;;;4964397;28;20043;-75
2023/10/30 03:06:59;;;;;;;3.00;0.90;;;;;;;;;;4966304;28;20043;-76
2023/10/30 03:09:26;;;;;;;2.47;0.63;;;;;;;;;;4985051;28;21376;-75
2023/10/30 03:11:51;;;;;;;3.47;0.85;;;;;;;;;;4960766;28;20030;-74
2023/10/30 03:14:17;;;;;;;2.17;0.73;;;;;;;;;;4951027;28;20035;-75
2023/10/30 03:16:42;;;;;;;2.30;0.60;;;;;;;;;;4986957;28;20046;-75
2023/10/30 03:19:08;;;;;;;1.45;0.82;;;;;;;;;;4967845;28;20042;-74
2023/10/30 03:21:34;;;;;;;3.90;0.80;;;;;;;;;;4943353;28;20101;-77
2023/10/30 03:23:59;;;;;;;0.98;0.88;;;;;;;;;;4968450;28;20384;-77
2023/10/30 03:26:25;;;;;;;2.58;0.70;;;;;;;;;;4973077;28;20047;-76
2023/10/30 03:28:51;;;;;;;5.57;1.08;;;;;;;;;;4977507;28;20030;-74
2023/10/30 03:31:16;;;;;;;3.05;0.98;;;;;;;;;;4960541;28;20047;-78
2023/10/30 03:33:41;;;;;;;3.65;0.60;;;;;;;;;;4951271;28;20073;-75
2023/10/30 03:36:07;;;;;;;2.53;0.60;;;;;;;;;;4961315;28;20402;-74
2023/10/30 03:38:32;;;;;;;1.55;0.68;;;;;;;;;;4971423;28;20035;-75
2023/10/30 03:40:59;;;;;;;0.75;0.50;;;;;;;;;;4954795;28;20441;-74
2023/10/30 03:43:24;;;;;;;1.42;0.55;;;;;;;;;;4962098;28;20034;-75
2023/10/30 03:45:49;;;;;;;1.88;0.90;;;;;;;;;;4985219;28;20488;-75
2023/10/30 03:48:15;;;;;;;5.43;1.67;;;;;;;;;;4957149;28;20045;-77
2023/10/30 03:50:40;;;;;;;1.27;0.80;;;;;;;;;;4967142;28;20035;-77
2023/10/30 03:53:06;;;;;;;2.72;0.90;;;;;;;;;;4964505;28;20069;-75
2023/10/30 03:55:32;;;;;;;1.30;0.85;;;;;;;;;;4967483;28;20521;-75
2023/10/30 03:57:57;;;;;;;3.80;0.68;;;;;;;;;;4964301;28;20394;-75
2023/10/30 04:00:23;;;;;;;0.85;0.75;;;;;;;;;;4977734;28;20510;-74
2023/10/30 04:02:48;;;;;;;2.55;0.70;;;;;;;;;;4961958;28;20100;-77
2023/10/30 04:05:14;;;;;;;3.47;1.00;;;;;;;;;;4965228;28;20035;-77
2023/10/30 04:07:39;;;;;;;1.02;0.55;;;;;;;;;;4950128;28;20046;-76
2023/10/30 04:10:05;;;;;;;1.10;0.70;;;;;;;;;;4977357;28;20511;-74
2023/10/30 04:12:31;;;;;;;2.53;1.10;;;;;;;;;;4957100;28;20038;-75
2023/10/30 04:14:57;;;;;;;1.40;0.52;;;;;;;;;;4947226;28;20054;-76
2023/10/30 04:17:23;;;;;;;1.80;0.90;;;;;;;;;;4953757;28;20130;-77
2023/10/30 04:19:48;;;;;;;2.75;0.88;;;;;;;;;;4987484;28;20130;-77
2023/10/30 04:22:13;;;;;;;0.50;0.50;;;;;;;;;;4953232;28;20044;-78
2023/10/30 04:24:39;;;;;;;0.98;0.60;;;;;;;;;;4968267;28;20064;-74
2023/10/30 04:27:05;;;;;;;0.70;0.60;;;;;;;;;;4958143;28;20104;-74
2023/10/30 04:29:31;;;;;;;5.10;0.90;;;;;;;;;;4960448;28;20039;-76
2023/10/30 04:31:56;;;;;;;3.92;0.90;;;;;;;;;;4953531;28;20088;-77
2023/10/30 04:34:21;;;;;;;4.35;0.95;;;;;;;;;;4974890;28;20039;-75
2023/10/30 04:36:47;;;;;;;1.45;0.55;;;;;;;;;;4961582;28;20039;-74
2023/10/30 04:39:13;;;;;;;4.28;1.10;;;;;;;;;;4960417;28;20046;-77
2023/10/30 04:41:39;;;;;;;3.47;0.75;;;;;;;;;;4969743;28;20031;-78
2023/10/30 04:44:05;;;;;;;2.17;0.93;;;;;;;;;;4973208;28;20386;-77
2023/10/30 04:46:31;;;;;;;3.20;1.35;;;;;;;;;;4976856;28;20035;-77
2023/10/30 04:48:56;;;;;;;2.80;1.00;;;;;;;;;;4965194;28;20115;-77
2023/10/30 04:51:21;;;;;;;3.90;1.10;;;;;;;;;;4951625;28;20049;-76
2023/10/30 04:53:47;;;;;;;4.43;1.15;;;;;;;;;;4979042;28;20118;-76
2023/10/30 04:56:12;;;;;;;1.60;0.73;;;;;;;;;;4955481;28;20031;-74
2023/10/30 04:58:38;;;;;;;6.57;1.25;;;;;;;;;;4977212;28;20034;-75
2023/10/30 05:01:09;;;;;;;1.88;0.60;;;;;;;;;;4949420;28;20083;-74
2023/10/30 05:03:38;;;;;;;3.20;0.90;;;;;;;;;;4971762;28;20026;-77
2023/10/30 05:06:04;;;;;;;6.63;1.02;;;;;;;;;;4959033;28;20395;-77
2023/10/30 05:08:29;;;;;;;4.68;1.52;;;;;;;;;;4965088;28;20091;-77
2023/10/30 05:10:54;;;;;;;2.15;1.13;;;;;;;;;;4966443;28;20438;-77
2023/10/30 05:13:23;;;;;;;2.15;0.95;;;;;;;;;;4970572;28;20066;-77
2023/10/30 05:15:48;;;;;;;3.17;1.00;;;;;;;;;;4960206;28;20039;-78
2023/10/30 05:18:14;;;;;;;1.60;1.02;;;;;;;;;;4960530;28;20039;-74
2023/10/30 05:20:39;;;;;;;2.70;0.90;;;;;;;;;;4948506;28;20050;-75
2023/10/30 05:23:05;;;;;;;3.03;0.82;;;;;;;;;;4952667;28;20042;-74
2023/10/30 05:25:30;;;;;;;2.28;1.10;;;;;;;;;;4966077;28;20050;-77
2023/10/30 05:27:57;;;;;;;6.50;1.30;;;;;;;;;;4936212;28;20066;-74
2023/10/30 05:30:22;;;;;;;2.05;1.05;;;;;;;;;;4966481;28;20603;-74
2023/10/30 05:32:48;;;;;;;4.07;1.08;;;;;;;;;;4971601;28;20118;-74
2023/10/30 05:35:13;;;;;;;2.15;0.82;;;;;;;;;;4959798;28;20565;-75
2023/10/30 05:37:38;;;;;;;1.10;0.80;;;;;;;;;;4968641;28;20043;-75
2023/10/30 05:40:07;;;;;;;0.52;0.52;;;;;;;;;;4966177;28;20457;-74
2023/10/30 05:42:32;;;;;;;1.27;0.70;;;;;;;;;;4953179;28;20042;-77
2023/10/30 05:44:58;;;;;;;2.28;0.90;;;;;;;;;;4957342;28;20084;-78
2023/10/30 05:47:23;;;;;;;4.03;0.85;;;;;;;;;;4960052;28;20046;-75
2023/10/30 05:49:48;;;;;;;5.90;0.85;;;;;;;;;;4954658;28;20571;-76
2023/10/30 05:52:14;;;;;;;4.10;1.10;;;;;;;;;;4946538;28;20054;-76
2023/10/30 05:54:39;;;;;;;1.30;0.98;;;;;;;;;;4975576;28;20136;-75
2023/10/30 05:57:05;;;;;;;1.00;0.65;;;;;;;;;;4952502;28;20214;-75
2023/10/30 05:59:30;;;;;;;2.70;0.85;;;;;;;;;;4954200;28;20123;-75
2023/10/30 06:01:56;;;;;;;0.60;0.60;;;;;;;;;;4951689;28;20081;-74
2023/10/30 06:04:21;;;;;;;2.78;0.85;;;;;;;;;;4971002;28;20043;-75
2023/10/30 06:06:46;;;;;;;3.47;0.80;;;;;;;;;;4964267;28;20039;-75
2023/10/30 06:09:12;;;;;;;1.73;0.73;;;;;;;;;;4960112;28;20108;-75
2023/10/30 06:11:38;;;;;;;5.05;1.00;;;;;;;;;;4958576;28;20106;-75
2023/10/30 06:14:03;;;;;;;2.83;1.02;;;;;;;;;;4964379;28;20051;-75
2023/10/30 06:16:28;;;;;;;4.32;0.80;;;;;;;;;;4959639;28;20074;-75
2023/10/30 06:18:54;;;;;;;1.98;0.68;;;;;;;;;;4998856;28;20071;-76
2023/10/30 06:21:20;;;;;;;4.28;0.73;;;;;;;;;;4943941;28;20066;-76
2023/10/30 06:23:46;;;;;;;3.00;0.70;;;;;;;;;;4942742;28;20786;-77
2023/10/30 06:26:13;;;;;;;1.92;0.70;;;;;;;;;;4958199;28;20045;-73
2023/10/30 06:28:39;;;;;;;3.28;0.80;;;;;;;;;;4973443;28;20487;-75
2023/10/30 06:31:18;;;;;;;2.30;0.70;;;;;;;;;;4988783;28;20035;-73
2023/10/30 06:33:45;;;;;;;1.65;0.60;;;;;;;;;;4959883;28;20046;-73
2023/10/30 06:36:10;;;;;;;3.58;0.77;;;;;;;;;;4953466;28;20039;-73
2023/10/30 06:38:36;;;;;;;0.93;0.50;;;;;;;;;;4948493;28;20077;-72
2023/10/30 06:41:03;;;;;;;0.60;0.60;;;;;;;;;;4969427;28;20042;-72
2023/10/30 06:43:29;;;;;;;3.03;0.75;;;;;;;;;;4956200;28;20046;-73
2023/10/30 06:46:04;;;;;;;3.58;0.80;;;;;;;;;;4939386;28;20451;-73
2023/10/30 06:48:30;;;;;;;1.58;0.57;;;;;;;;;;4958858;28;20050;-73
2023/10/30 06:50:56;;;;;;;4.03;0.88;;;;;;;;;;4963051;28;20949;-71
2023/10/30 06:53:24;;;;;;;3.92;0.98;;;;;;;;;;4959920;28;20392;-71
2023/10/30 06:55:50;;;;;;;2.17;0.77;;;;;;;;;;4966561;28;20034;-72
2023/10/30 06:58:17;;;;;;;1.55;0.50;;;;;;;;;;4949653;28;20046;-73
2023/10/30 07:00:43;;;;;;;4.20;0.70;;;;;;;;;;4987238;28;20040;-73
2023/10/30 07:03:08;;;;;;;5.00;0.85;;;;;;;;;;4946566;28;20746;-73
2023/10/30 07:05:34;;;;;;;2.00;0.75;;;;;;;;;;4972350;28;20080;-75
2023/10/30 07:07:59;;;;;;;0.95;0.57;;;;;;;;;;4975139;28;20038;-75
2023/10/30 07:10:24;;;;;;;1.50;0.43;;;;;;;;;;4964848;28;20617;-73
2023/10/30 07:12:50;;;;;;;1.05;0.63;;;;;;;;;;4964217;28;20034;-73
2023/10/30 07:15:15;;;;;;;4.03;1.58;;;;;;;;;;4970984;28;20050;-73
2023/10/30 07:17:41;;;;;;;2.47;0.50;;;;;;;;;;4959852;28;20100;-73
2023/10/30 07:20:06;;;;;;;3.28;0.70;;;;;;;;;;4930756;28;20524;-72
2023/10/30 07:22:32;;;;;;;2.28;0.50;;;;;;;;;;4959827;28;20070;-75
2023/10/30 07:24:57;;;;;;;2.15;0.88;;;;;;;;;;4976304;28;20031;-72
2023/10/30 07:27:24;;;;;;;1.73;0.75;;;;;;;;;;4967559;28;20565;-75
2023/10/30 07:29:49;;;;;;;4.28;1.13;;;;;;;;;;4963869;28;20046;-73
2023/10/30 07:32:15;;;;;;;3.10;0.60;;;;;;;;;;4957092;28;20049;-74
2023/10/30 07:34:41;;;;;;;2.38;0.70;;;;;;;;;;4964083;28;20038;-73
2023/10/30 07:37:06;;;;;;;2.72;0.80;;;;;;;;;;4950769;28;20034;-72
2023/10/30 07:39:32;;;;;;;2.42;0.57;;;;;;;;;;4981419;28;20057;-75
2023/10/30 07:41:58;;;;;;;2.85;0.60;;;;;;;;;;4957260;28;20127;-73
2023/10/30 07:44:23;;;;;;;2.83;0.60;;;;;;;;;;4972360;28;20376;-73
2023/10/30 07:46:49;;;;;;;2.45;0.50;;;;;;;;;;4953081;28;20057;-72
2023/10/30 07:49:14;;;;;;;2.25;0.70;;;;;;;;;;4980404;28;20096;-72
2023/10/30 07:51:39;;;;;;;1.13;0.47;;;;;;;;;;4961918;28;20046;-72
2023/10/30 07:54:06;;;;;;;0.93;0.43;;;;;;;;;;4953718;28;20090;-73
2023/10/30 07:56:31;;;;;;;3.83;0.80;;;;;;;;;;4962838;28;20619;-73
2023/10/30 07:58:57;;;;;;;2.22;0.70;;;;;;;;;;4967714;28;20062;-73
2023/10/30 08:01:22;;;;;;;3.38;1.00;;;;;;;;;;4947514;28;20049;-75
2023/10/30 08:03:47;;;;;;;2.80;0.70;;;;;;;;;;4957465;28;20465;-76
2023/10/30 08:06:13;;;;;;;2.30;0.63;;;;;;;;;;4965219;28;20074;-73
2023/10/30 08:08:38;;;;;;;9.18;4.38;;;;;;;;;;4964760;28;20442;-75
2023/10/30 08:11:04;;;;;;;1.60;0.70;;;;;;;;;;4983292;28;20039;-75
2023/10/30 08:13:33;;;;;;;3.88;0.60;;;;;;;;;;4967191;28;20463;-73
2023/10/30 08:15:59;;;;;;;2.40;0.60;;;;;;;;;;4973117;28;20038;-73
2023/10/30 08:18:25;;;;;;;2.60;1.55;;;;;;;;;;4962327;28;20072;-73
2023/10/30 08:20:51;;;;;;;0.93;0.75;;;;;;;;;;4969431;28;20097;-75
2023/10/30 08:23:17;;;;;;;1.80;0.73;;;;;;;;;;4948884;28;20443;-75
2023/10/30 08:25:43;;;;;;;1.80;0.77;;;;;;;;;;4962556;28;20073;-73
2023/10/30 08:28:08;;;;;;;0.57;0.50;;;;;;;;;;4983781;28;20059;-75
2023/10/30 08:30:34;;;;;;;1.33;0.65;;;;;;;;;;4949349;28;20047;-73
2023/10/30 08:33:03;;;;;;;1.20;0.60;;;;;;;;;;4960538;28;20141;-73
2023/10/30 08:35:28;;;;;;;1.50;0.65;;;;;;;;;;4961770;28;20613;-73
2023/10/30 08:37:55;;;;;;;2.22;0.60;;;;;;;;;;4950067;28;20069;-73
2023/10/30 08:40:20;;;;;;;0.88;0.65;;;;;;;;;;4959806;28;20043;-72
2023/10/30 08:42:46;;;;;;;1.65;0.70;;;;;;;;;;4968233;28;20620;-73
2023/10/30 08:45:12;;;;;;;1.70;0.70;;;;;;;;;;4963807;28;20051;-72
2023/10/30 08:47:38;;;;;;;2.95;0.80;;;;;;;;;;4963674;28;20043;-73
2023/10/30 08:50:05;;;;;;;2.60;0.65;;;;;;;;;;4967463;28;20675;-73
2023/10/30 08:52:30;;;;;;;3.22;0.70;;;;;;;;;;4957583;28;20042;-73
2023/10/30 08:54:56;;;;;;;0.65;0.50;;;;;;;;;;4958464;28;20049;-73
2023/10/30 08:57:21;;;;;;;2.92;0.40;;;;;;;;;;4947151;28;20055;-73
2023/10/30 08:59:47;;;;;;;3.33;0.70;;;;;;;;;;4966874;28;20481;-73
2023/10/30 09:02:12;;;;;;;4.25;0.98;;;;;;;;;;4966504;28;20046;-73
2023/10/30 09:04:38;;;;;;;1.50;0.60;;;;;;;;;;4962673;28;20074;-73
2023/10/30 09:07:03;;;;;;;1.80;0.90;;;;;;;;;;4961075;28;20117;-73
2023/10/30 09:09:29;;;;;;;2.25;0.52;;;;;;;;;;4972060;28;20503;-73
2023/10/30 09:11:55;;;;;;;1.23;0.60;;;;;;;;;;4956311;28;20446;-73
2023/10/30 09:14:20;;;;;;;2.38;0.50;;;;;;;;;;4960660;28;20046;-73
2023/10/30 09:16:45;;;;;;;1.27;0.50;;;;;;;;;;4943218;28;20046;-73
2023/10/30 09:19:11;;;;;;;1.45;0.45;;;;;;;;;;4959971;28;20042;-73
2023/10/30 09:21:36;;;;;;;0.98;0.50;;;;;;;;;;4952962;28;20038;-73
2023/10/30 09:24:02;;;;;;;1.52;0.73;;;;;;;;;;4960612;28;20042;-73
2023/10/30 09:26:28;;;;;;;2.55;0.57;;;;;;;;;;4953370;28;20133;-73
2023/10/30 09:28:54;;;;;;;1.58;0.60;;;;;;;;;;4965195;28;20138;-76
2023/10/30 09:31:20;;;;;;;1.55;0.60;;;;;;;;;;4954473;28;20181;-74
2023/10/30 09:33:45;;;;;;;0.90;0.47;;;;;;;;;;4973319;28;20578;-73
2023/10/30 09:36:10;;;;;;;2.00;0.40;;;;;;;;;;4968201;28;20034;-73
2023/10/30 09:38:36;;;;;;;0.95;0.52;;;;;;;;;;4964084;28;20034;-73
2023/10/30 09:41:05;;;;;;;4.20;0.50;;;;;;;;;;4960528;28;20038;-73
2023/10/30 09:43:33;;;;;;;1.15;0.40;;;;;;;;;;4958920;28;20124;-73
2023/10/30 09:46:00;;;;;;;2.20;0.95;;;;;;;;;;4955109;28;20076;-73
2023/10/30 09:48:27;;;;;;;1.08;0.50;;;;;;;;;;4964082;28;20042;-73
2023/10/30 09:50:54;;;;;;;2.10;0.50;;;;;;;;;;4958452;28;20060;-73
2023/10/30 09:53:19;;;;;;;1.25;0.40;;;;;;;;;;4961933;28;20655;-72
2023/10/30 09:55:47;;;;;;;1.42;0.52;;;;;;;;;;4951519;28;20042;-73
2023/10/30 09:58:13;;;;;;;2.38;0.40;;;;;;;;;;4965147;28;20045;-73
2023/10/30 10:00:38;;;;;;;1.50;0.40;;;;;;;;;;4959566;28;20557;-73
2023/10/30 10:03:07;;;;;;;2.60;0.65;;;;;;;;;;4946846;28;20043;-73
2023/10/30 10:05:32;;;;;;;4.32;0.60;;;;;;;;;;4952448;28;20046;-73
2023/10/30 10:07:59;;;;;;;1.52;0.30;;;;;;;;;;4954231;28;20047;-74
2023/10/30 10:10:24;;;;;;;1.13;0.32;;;;;;;;;;4950816;28;20050;-73
2023/10/30 10:12:51;;;;;;;1.30;0.38;;;;;;;;;;4958547;28;20031;-73
2023/10/30 10:15:17;;;;;;;1.90;0.75;;;;;;;;;;4960187;28;20047;-74
2023/10/30 10:17:48;;;;;;;0.73;0.60;;;;;;;;;;4967353;28;20054;-74
2023/10/30 10:20:14;;;;;;;0.30;0.20;;;;;;;;;;4948164;28;20042;-76
2023/10/30 10:22:40;;;;;;;2.08;0.40;;;;;;;;;;4954418;28;20042;-75
2023/10/30 10:25:15;;;;;;;0.30;0.30;;;;;;;;;;4962578;28;20607;-75
2023/10/30 10:27:41;;;;;;;0.25;0.25;;;;;;;;;;4954745;28;20035;-76
2023/10/30 10:30:06;;;;;;;1.33;0.40;;;;;;;;;;4967256;28;20039;-76
2023/10/30 10:32:32;;;;;;;1.67;0.40;;;;;;;;;;4974354;28;20046;-76
2023/10/30 10:35:02;;;;;;;0.38;0.20;;;;;;;;;;4937435;28;20047;-75
2023/10/30 10:37:28;;;;;;;0.65;0.40;;;;;;;;;;4963878;28;20032;-76
2023/10/30 10:39:54;;;;;;;1.08;0.98;;;;;;;;;;4978235;28;20042;-76
2023/10/30 10:42:21;;;;;;;0.73;0.20;;;;;;;;;;4965008;28;20510;-75
2023/10/30 10:44:51;;;;;;;0.93;0.30;;;;;;;;;;4965182;28;20046;-76
2023/10/30 10:47:18;;;;;;;1.97;0.70;;;;;;;;;;4962276;28;20422;-76
2023/10/30 10:49:43;;;;;;;1.60;0.40;;;;;;;;;;4950969;28;20076;-76
2023/10/30 10:52:12;;;;;;;2.05;0.32;;;;;;;;;;4966910;28;20046;-76
2023/10/30 10:54:53;;;;;;;1.70;0.40;;;;;;;;;;4963011;28;20049;-75
2023/10/30 10:57:20;;;;;;;1.92;0.20;;;;;;;;;;4968889;28;20477;-76
2023/10/30 10:59:49;;;;;;;0.50;0.30;;;;;;;;;;4964006;28;20093;-76
2023/10/30 11:02:21;;;;;;;0.35;0.30;;;;;;;;;;4953553;28;20035;-76
2023/10/30 11:04:51;;;;;;;1.02;0.30;;;;;;;;;;4966044;28;20797;-76
2023/10/30 11:07:29;;;;;;;0.38;0.30;;;;;;;;;;4951349;28;20065;-75
2023/10/30 11:10:00;;;;;;;0.68;0.30;;;;;;;;;;4967895;28;20120;-76
2023/10/30 11:12:47;;;;;;;0.60;0.30;;;;;;;;;;4972652;28;20045;-76
2023/10/30 11:15:13;;;;;;;1.80;0.30;;;;;;;;;;4989699;28;20035;-76
2023/10/30 11:17:38;;;;;;;0.90;0.30;;;;;;;;;;4932918;28;20053;-75
2023/10/30 11:20:07;;;;;;;0.32;0.30;;;;;;;;;;4952105;28;20132;-76
2023/10/30 11:22:40;;;;;;;0.30;0.30;;;;;;;;;;4976136;28;20522;-75
2023/10/30 11:25:06;;;;;;;1.05;0.30;;;;;;;;;;4960951;28;20675;-76
2023/10/30 11:27:31;;;;;;;2.05;0.30;;;;;;;;;;4972757;28;20080;-76
2023/10/30 11:30:03;;;;;;;2.90;0.30;;;;;;;;;;4963212;28;20702;-76
2023/10/30 11:32:36;;;;;;;0.32;0.28;;;;;;;;;;4978861;28;21050;-76
2023/10/30 11:35:03;;;;;;;0.40;0.20;;;;;;;;;;4959156;28;20100;-75
2023/10/30 11:37:32;;;;;;;0.77;0.20;;;;;;;;;;4978419;28;20033;-76
2023/10/30 11:40:01;;;;;;;1.10;0.30;;;;;;;;;;4963097;28;20035;-76
2023/10/30 11:42:28;;;;;;;0.47;0.30;;;;;;;;;;4981562;28;20476;-76
2023/10/30 11:45:22;;;;;;;1.30;0.30;;;;;;;;;;4969645;28;20046;-74
2023/10/30 11:48:07;;;;;;;9.25;1.50;;;;;;;;;;4972962;28;20069;-74
2023/10/30 11:50:42;;;;;;;0.30;0.20;;;;;;;;;;4982958;28;20044;-75
2023/10/30 11:53:14;;;;;;;10.38;0.85;;;;;;;;;;4964603;28;20117;-76
2023/10/30 11:55:40;;;;;;;0.30;0.22;;;;;;;;;;4960000;28;20065;-76
2023/10/30 11:58:09;;;;;;;0.95;0.20;;;;;;;;;;4969024;28;20054;-75
2023/10/30 12:00:36;;;;;;;0.77;0.40;;;;;;;;;;4977630;28;20041;-76
2023/10/30 12:03:03;;;;;;;0.40;0.30;;;;;;;;;;4975823;28;20062;-75
2023/10/30 12:05:28;;;;;;;0.95;0.40;;;;;;;;;;4960367;28;20054;-76
2023/10/30 12:07:54;;;;;;;0.63;0.20;;;;;;;;;;4951052;28;20047;-77
2023/10/30 12:10:20;;;;;;;0.30;0.30;;;;;;;;;;4970998;28;20122;-76
2023/10/30 12:12:46;;;;;;;0.50;0.30;;;;;;;;;;4954276;28;20555;-76
2023/10/30 12:15:12;;;;;;;5.00;0.80;;;;;;;;;;4988376;28;20038;-76
2023/10/30 12:17:39;;;;;;;0.63;0.28;;;;;;;;;;4991792;28;20036;-76
2023/10/30 12:20:06;;;;;;;1.70;0.70;;;;;;;;;;4980858;28;20072;-76
2023/10/30 12:22:35;;;;;;;1.02;0.50;;;;;;;;;;4979320;28;20524;-76
2023/10/30 12:25:00;;;;;;;1.00;0.50;;;;;;;;;;4950738;28;20078;-74
2023/10/30 12:27:26;;;;;;;1.42;0.40;;;;;;;;;;4949151;28;20067;-76
2023/10/30 12:29:57;;;;;;;0.85;0.47;;;;;;;;;;4996991;28;20053;-76
2023/10/30 12:32:26;;;;;;;1.98;1.27;;;;;;;;;;4989680;28;20047;-76
2023/10/30 12:34:52;;;;;;;1.80;0.90;;;;;;;;;;4982424;28;20040;-76
2023/10/30 12:37:24;;;;;;;0.40;0.40;;;;;;;;;;4971113;28;20036;-77
2023/10/30 12:40:07;;;;;;;1.88;0.40;;;;;;;;;;4961908;28;20074;-77
2023/10/30 12:42:34;;;;;;;1.88;0.90;;;;;;;;;;4961578;28;20045;-76
2023/10/30 12:45:17;;;;;;;1.60;0.80;;;;;;;;;;4959849;28;20106;-76
2023/10/30 12:47:44;;;;;;;1.67;0.70;;;;;;;;;;4961588;28;20073;-76
2023/10/30 12:50:12;;;;;;;0.47;0.30;;;;;;;;;;4998720;28;20080;-74
2023/10/30 12:52:38;;;;;;;0.57;0.40;;;;;;;;;;4958873;28;20062;-76
2023/10/30 12:55:04;;;;;;;0.98;0.50;;;;;;;;;;4955599;28;20062;-76
2023/10/30 12:57:29;;;;;;;1.52;0.60;;;;;;;;;;4973349;28;20093;-77
2023/10/30 12:59:55;;;;;;;2.42;0.80;;;;;;;;;;4999686;28;20785;-74
2023/10/30 13:02:21;;;;;;;1.10;0.50;;;;;;;;;;4981724;28;20129;-76
2023/10/30 13:04:46;;;;;;;2.08;0.52;;;;;;;;;;4966347;28;20035;-76
2023/10/30 13:07:12;;;;;;;0.88;0.40;;;;;;;;;;4986646;28;20042;-77
2023/10/30 13:09:37;;;;;;;0.45;0.30;;;;;;;;;;4982642;28;20114;-76
2023/10/30 13:12:03;;;;;;;1.50;0.50;;;;;;;;;;4944738;28;20100;-76
2023/10/30 13:14:28;;;;;;;4.47;0.70;;;;;;;;;;4988326;28;20036;-76
2023/10/30 13:16:55;;;;;;;1.98;0.65;;;;;;;;;;4965672;28;20102;-76
2023/10/30 13:19:21;;;;;;;1.70;0.60;;;;;;;;;;4962441;28;20431;-77
2023/10/30 13:21:47;;;;;;;2.53;1.10;;;;;;;;;;4932729;28;20031;-77
2023/10/30 13:24:12;;;;;;;3.03;1.15;;;;;;;;;;4964657;28;20039;-76
2023/10/30 13:26:37;;;;;;;1.23;0.50;;;;;;;;;;4946950;28;20047;-76
2023/10/30 13:29:03;;;;;;;0.68;0.47;;;;;;;;;;4951761;28;20570;-76
2023/10/30 13:31:28;;;;;;;0.95;0.50;;;;;;;;;;4966186;28;20091;-75
2023/10/30 13:33:54;;;;;;;1.58;0.50;;;;;;;;;;4963813;28;20521;-76
2023/10/30 13:36:19;;;;;;;1.95;0.80;;;;;;;;;;4962727;28;20419;-76
2023/10/30 13:38:45;;;;;;;0.35;0.32;;;;;;;;;;4962503;28;20089;-76
2023/10/30 13:41:11;;;;;;;0.98;0.60;;;;;;;;;;4950600;28;20047;-76
2023/10/30 13:43:36;;;;;;;1.05;0.68;;;;;;;;;;4946368;28;20039;-76
2023/10/30 13:46:02;;;;;;;0.85;0.70;;;;;;;;;;4981012;28;20062;-76
2023/10/30 13:48:28;;;;;;;0.70;0.70;;;;;;;;;;4964305;28;20038;-76
2023/10/30 13:50:53;;;;;;;2.10;0.70;;;;;;;;;;4961188;28;20375;-78
2023/10/30 13:53:19;;;;;;;0.45;0.43;;;;;;;;;;4961639;28;20184;-76
2023/10/30 13:55:44;;;;;;;0.55;0.50;;;;;;;;;;4937019;28;20103;-76
2023/10/30 13:58:09;;;;;;;3.38;0.50;;;;;;;;;;4961148;28;20507;-77
2023/10/30 14:00:35;;;;;;;0.77;0.40;;;;;;;;;;4985925;28;20037;-76
2023/10/30 14:03:01;;;;;;;0.77;0.40;;;;;;;;;;4961591;28;20039;-77
2023/10/30 14:05:28;;;;;;;1.58;0.40;;;;;;;;;;4970074;28;20040;-76
2023/10/30 14:07:54;;;;;;;1.38;0.50;;;;;;;;;;4960336;28;20038;-76
2023/10/30 14:10:20;;;;;;;0.93;0.68;;;;;;;;;;4970733;28;20061;-76
2023/10/30 14:12:45;;;;;;;1.23;0.82;;;;;;;;;;4958340;28;20042;-77
2023/10/30 14:15:10;;;;;;;0.60;0.60;;;;;;;;;;4956351;28;20031;-76
2023/10/30 14:17:36;;;;;;;0.90;0.60;;;;;;;;;;4941994;28;20138;-76
2023/10/30 14:20:02;;;;;;;0.82;0.50;;;;;;;;;;4968147;28;20656;-76
2023/10/30 14:22:27;;;;;;;1.08;0.50;;;;;;;;;;4944971;28;20055;-77
2023/10/30 14:24:53;;;;;;;0.68;0.50;;;;;;;;;;4956312;28;20069;-76
2023/10/30 14:27:18;;;;;;;0.50;0.50;;;;;;;;;;4957263;28;20058;-77
2023/10/30 14:29:44;;;;;;;0.55;0.47;;;;;;;;;;4960187;28;20111;-76
2023/10/30 14:32:09;;;;;;;0.50;0.50;;;;;;;;;;4947118;28;20043;-77
2023/10/30 14:34:35;;;;;;;1.00;0.63;;;;;;;;;;4947459;28;20035;-76
2023/10/30 14:37:04;;;;;;;1.00;0.60;;;;;;;;;;4932882;28;20057;-76
2023/10/30 14:39:31;;;;;;;1.02;0.50;;;;;;;;;;4964212;28;20066;-76